TimeMDT,TemperatureF,Dew PointF,Humidity,Sea Level PressureIn,VisibilityMPH,Wind Direction,Wind SpeedMPH,Gust SpeedMPH,PrecipitationIn,Events,Conditions,WindDirDegrees,DateUTC
12:00 AM,32,30,90,,,NNE,1.2,,,,,30,2013-10-13 06:00:00
12:00 AM,32.0,30.2,93,-9999,-9999.0,NNE,1.2,-,N/A,,Unknown,30,2013-10-13 06:00:00
1:00 AM,29.8,29.1,97,-9999,-9999.0,South,1.2,-,N/A,,Unknown,190,2013-10-13 07:00:00
2:00 AM,30.2,29.5,97,-9999,-9999.0,West,1.2,-,N/A,,Unknown,280,2013-10-13 08:00:00
3:00 AM,29.5,28.8,97,-9999,-9999.0,Calm,Calm,-,N/A,,Unknown,0,2013-10-13 09:00:00
4:00 AM,27.3,27.1,99,-9999,-9999.0,NNE,2.3,-,N/A,,Unknown,20,2013-10-13 10:00:00
5:00 AM,29.3,29.3,100,-9999,-9999.0,Calm,Calm,-,N/A,,Unknown,0,2013-10-13 11:00:00
6:00 AM,28,28,100,,,WSW,2.3,,,,,250,2013-10-13 12:00:00
6:00 AM,28.4,28.0,99,-9999,-9999.0,WSW,2.3,-,N/A,,Unknown,250,2013-10-13 12:00:00
7:00 AM,26.2,25.7,98,-9999,-9999.0,Calm,Calm,-,N/A,,Unknown,0,2013-10-13 13:00:00
8:00 AM,23.7,23.4,99,-9999,-9999.0,Calm,Calm,-,N/A,,Unknown,0,2013-10-13 14:00:00
9:00 AM,27.3,26.1,95,-9999,-9999.0,SW,3.5,-,N/A,,Unknown,220,2013-10-13 15:00:00
10:00 AM,31.5,31.1,99,-9999,-9999.0,WSW,2.3,-,N/A,,Unknown,250,2013-10-13 16:00:00
11:00 AM,36.7,30.9,80,-9999,-9999.0,SW,2.3,-,N/A,,Unknown,230,2013-10-13 17:00:00
12:00 PM,43,31,51,,,NNE,3.5,,,,,20,2013-10-13 18:00:00
12:00 PM,43.2,30.9,62,-9999,-9999.0,NNE,3.5,-,N/A,,Unknown,20,2013-10-13 18:00:00
1:00 PM,44.8,29.1,54,-9999,-9999.0,ENE,3.5,-,N/A,,Unknown,60,2013-10-13 19:00:00
2:00 PM,43.9,28.0,54,-9999,-9999.0,North,4.6,-,N/A,,Unknown,10,2013-10-13 20:00:00
3:00 PM,42.8,28.6,57,-9999,-9999.0,NNW,3.5,-,N/A,,Unknown,340,2013-10-13 21:00:00
4:00 PM,43.7,28.0,54,-9999,-9999.0,ENE,2.3,-,N/A,,Unknown,60,2013-10-13 22:00:00
5:00 PM,42.4,30.2,62,-9999,-9999.0,ENE,5.8,-,N/A,,Unknown,70,2013-10-13 23:00:00
6:00 PM,41,31,56,,,NE,3.5,,,,,40,2013-10-14 00:00:00
6:00 PM,40.8,30.7,67,-9999,-9999.0,NE,3.5,-,N/A,,Unknown,40,2013-10-14 00:00:00
7:00 PM,38.8,31.1,74,-9999,-9999.0,NE,3.5,-,N/A,,Unknown,40,2013-10-14 01:00:00
8:00 PM,38.5,31.6,76,-9999,-9999.0,Calm,Calm,-,N/A,,Unknown,0,2013-10-14 02:00:00
9:00 PM,37.2,32.0,81,-9999,-9999.0,Calm,Calm,-,N/A,,Unknown,0,2013-10-14 03:00:00
10:00 PM,35.8,31.8,86,-9999,-9999.0,West,1.2,-,N/A,,Unknown,260,2013-10-14 04:00:00
11:00 PM,34.9,31.3,87,-9999,-9999.0,Calm,Calm,-,N/A,,Unknown,0,2013-10-14 05:00:00